Date,TemperatureHighF,TemperatureAvgF,TemperatureLowF,DewpointHighF,DewpointAvgF,DewpointLowF,HumidityHigh,HumidityAvg,HumidityLow,PressureMaxIn,PressureMinIn,WindSpeedMaxMPH,WindSpeedAvgMPH,GustSpeedMaxMPH,PrecipitationSumIn
2013-3-1,31,27,24,-100,-100,-100,0,0,100,0.00,40.00,0,-999,0,0.00
2013-3-2,43,30,16,-100,-100,-100,0,0,100,0.00,40.00,0,-999,0,0.00
2013-3-3,45,34,24,-100,-100,-100,0,0,100,0.00,40.00,0,-999,0,0.00
2013-3-4,46,38,34,-100,-100,-100,0,0,100,0.00,40.00,0,-999,0,0.00
2013-3-5,35,30,24,-100,-100,-100,0,0,100,0.00,40.00,0,-999,0,0.00
2013-3-6,41,27,14,-100,-100,-100,0,0,100,0.00,40.00,0,-999,0,0.00
2013-3-7,54,36,22,-100,-100,-100,0,0,100,0.00,40.00,0,-999,0,0.00
2013-3-8,59,44,32,-100,-100,-100,0,0,100,0.00,40.00,0,-999,0,0.00
2013-3-9,54,51,47,-100,-100,-100,0,0,100,0.00,40.00,0,-999,0,0.00
2013-3-10,45,30,22,-100,-100,-100,0,0,100,0.00,40.00,0,-999,0,0.00
2013-3-11,39,27,20,-100,-100,-100,0,0,100,0.00,40.00,0,-999,0,0.00
2013-3-12,43,35,29,-100,-100,-100,0,0,100,0.00,40.00,0,-999,0,0.00
2013-3-13,46,30,15,-100,-100,-100,0,0,100,0.00,40.00,0,-999,0,0.00
2013-3-14,69,48,32,-100,-100,-100,0,0,100,0.00,40.00,0,-999,0,0.00
2013-3-15,79,55,35,-100,-100,-100,0,0,100,0.00,40.00,0,-999,0,0.00
2013-3-16,54,36,31,-100,-100,-100,0,0,100,0.00,40.00,0,-999,0,0.00
2013-3-17,38,31,25,-100,-100,-100,0,0,100,0.00,40.00,0,-999,0,0.00
2013-3-18,51,38,29,-100,-100,-100,0,0,100,0.00,40.00,0,-999,0,0.00
2013-3-19,44,36,29,-100,-100,-100,0,0,100,0.00,40.00,0,-999,0,0.00
2013-3-20,42,31,21,-100,-100,-100,0,0,100,0.00,40.00,0,-999,0,0.00
2013-3-21,32,27,24,-100,-100,-100,0,0,100,0.00,40.00,0,-999,0,0.00
2013-3-22,32,28,25,-100,-100,-100,0,0,100,0.00,40.00,0,-999,0,0.00
2013-3-23,35,30,27,-100,-100,-100,0,0,100,0.00,40.00,0,-999,0,0.00
2013-3-24,32,27,24,-100,-100,-100,0,0,100,0.00,40.00,0,-999,0,0.00
2013-3-25,32,27,21,-100,-100,-100,0,0,100,0.00,40.00,0,-999,0,0.00
2013-3-26,42,29,15,-100,-100,-100,0,0,100,0.00,40.00,0,-999,0,0.00
2013-3-27,49,37,26,-100,-100,-100,0,0,100,0.00,40.00,0,-999,0,0.00
2013-3-28,61,43,25,-100,-100,-100,0,0,100,0.00,40.00,0,-999,0,0.00
2013-3-29,67,52,36,-100,-100,-100,0,0,100,0.00,40.00,0,-999,0,0.00
2013-3-30,68,55,47,-100,-100,-100,0,0,100,0.00,40.00,0,-999,0,0.00
2013-3-31,62,52,43,-100,-100,-100,0,0,100,0.00,40.00,0,-999,0,0.00